Time;durP1;ratioP1;P1;durP2;ratioP2;P2;SDS_P1;SDS_P2;PMS_P1;PMS_P2;Temp;Humidity;BMP_temperature;BMP_pressure;BME280_temperature;BME280_humidity;BME280_pressure;Samples;Min_cycle;Max_cycle;Signal;HPM_P1;HPM_P2
2021/05/26 00:00:57;;;;;;;3.53;2.72;;;;;;;9.19;78.06;101279.63;5069101;28;20044;-49
2021/05/26 00:03:22;;;;;;;2.75;2.55;;;;;;;9.12;78.27;101276.22;5069367;28;20032;-46
2021/05/26 00:05:49;;;;;;;3.65;2.55;;;;;;;8.93;79.43;101266.59;5071015;28;20047;-47
2021/05/26 00:08:44;;;;;;;4.97;2.63;;;;;;;9.01;78.46;101277.00;5069735;28;20198;-47
2021/05/26 00:11:13;;;;;;;6.20;2.90;;;;;;;8.94;79.45;101270.88;5055517;28;20402;-46
2021/05/26 00:13:39;;;;;;;3.17;2.65;;;;;;;9.07;78.28;101276.06;5067868;28;20306;-46
2021/05/26 00:16:06;;;;;;;3.53;2.60;;;;;;;9.02;78.71;101278.63;5068807;28;20056;-46
2021/05/26 00:18:32;;;;;;;4.22;2.42;;;;;;;9.04;78.27;101277.34;5072129;28;20021;-47
2021/05/26 00:20:58;;;;;;;3.58;2.13;;;;;;;8.90;79.37;101273.19;5063813;28;20465;-49
2021/05/26 00:23:24;;;;;;;2.38;2.00;;;;;;;8.99;78.39;101281.75;5070373;28;20031;-46
2021/05/26 00:25:50;;;;;;;3.55;2.00;;;;;;;8.87;79.38;101281.66;5065896;28;20021;-47
2021/05/26 00:28:16;;;;;;;2.08;1.88;;;;;;;8.93;78.82;101275.41;5066009;28;20413;-46
2021/05/26 00:30:45;;;;;;;3.03;2.30;;;;;;;8.92;78.79;101267.63;5070173;28;20062;-47
2021/05/26 00:33:11;;;;;;;5.65;2.45;;;;;;;8.88;79.02;101271.78;5066316;28;20032;-47
2021/05/26 00:35:37;;;;;;;2.42;1.98;;;;;;;8.81;79.63;101268.41;5070504;28;20040;-46
2021/05/26 00:38:03;;;;;;;6.22;2.10;;;;;;;8.73;80.48;101259.63;5072352;28;20021;-46
2021/05/26 00:40:28;;;;;;;2.60;2.30;;;;;;;8.77;79.56;101263.47;5072652;28;20051;-46
2021/05/26 00:42:54;;;;;;;3.35;1.98;;;;;;;8.83;79.30;101264.47;5074722;28;20273;-46
2021/05/26 00:45:19;;;;;;;2.80;2.42;;;;;;;8.66;80.73;101264.22;5072633;28;20024;-48
2021/05/26 00:47:47;;;;;;;2.33;2.03;;;;;;;8.93;78.75;101262.06;5071009;28;20044;-46
2021/05/26 00:50:22;;;;;;;2.95;2.00;;;;;;;8.88;79.35;101259.25;5072652;28;20036;-46
2021/05/26 00:52:48;;;;;;;2.25;1.80;;;;;;;8.97;78.65;101252.53;5071857;28;20044;-46
2021/05/26 00:55:18;;;;;;;3.10;2.00;;;;;;;8.96;79.25;101263.47;5070112;28;20086;-46
2021/05/26 00:57:47;;;;;;;2.38;2.00;;;;;;;9.02;78.51;101260.72;5070889;28;20028;-45
2021/05/26 01:00:14;;;;;;;4.10;2.08;;;;;;;8.98;79.15;101264.06;5070417;28;20063;-49
2021/05/26 01:02:40;;;;;;;2.53;1.90;;;;;;;9.00;78.86;101262.00;5071332;28;20082;-47
2021/05/26 01:05:07;;;;;;;3.03;1.85;;;;;;;9.06;78.46;101253.88;5071414;28;20184;-47
2021/05/26 01:07:33;;;;;;;2.10;1.90;;;;;;;8.96;79.29;101250.91;5073431;28;20407;-46
2021/05/26 01:09:59;;;;;;;2.40;1.90;;;;;;;8.92;79.62;101252.41;5068220;28;20578;-46
2021/05/26 01:12:25;;;;;;;4.40;2.38;;;;;;;8.90;79.72;101253.69;5071543;28;20028;-46
2021/05/26 01:14:51;;;;;;;3.83;2.28;;;;;;;8.82;81.33;101251.31;5073041;28;20020;-47
2021/05/26 01:17:16;;;;;;;2.83;2.15;;;;;;;8.82;81.21;101249.47;5072164;28;20024;-47
2021/05/26 01:19:42;;;;;;;2.97;2.33;;;;;;;8.91;80.66;101255.31;5073109;28;20016;-48
2021/05/26 01:22:08;;;;;;;4.03;1.75;;;;;;;8.99;79.98;101250.50;5069357;28;20035;-46
2021/05/26 01:24:34;;;;;;;2.28;2.08;;;;;;;8.95;80.41;101245.78;5070745;28;20036;-46
2021/05/26 01:27:00;;;;;;;3.45;2.08;;;;;;;9.05;79.55;101246.91;5070392;28;20032;-48
2021/05/26 01:29:26;;;;;;;1.95;1.30;;;;;;;8.95;79.75;101240.44;5072169;28;20082;-45
2021/05/26 01:31:53;;;;;;;2.15;1.90;;;;;;;8.92;79.68;101241.72;5070428;28;20160;-46
2021/05/26 01:34:19;;;;;;;3.10;1.90;;;;;;;8.92;79.37;101240.91;5071510;28;20083;-47
2021/05/26 01:36:45;;;;;;;2.00;1.58;;;;;;;8.84;79.65;101233.22;5071034;28;20031;-48
2021/05/26 01:39:10;;;;;;;2.35;1.70;;;;;;;8.91;78.75;101240.09;5074654;28;20054;-47
2021/05/26 01:41:36;;;;;;;3.95;2.10;;;;;;;8.95;78.81;101237.78;5070709;28;20107;-46
2021/05/26 01:44:03;;;;;;;3.97;1.67;;;;;;;9.00;78.38;101233.41;5069670;28;20028;-48
2021/05/26 01:46:29;;;;;;;2.38;1.92;;;;;;;8.90;78.90;101232.28;5061448;28;20032;-49
2021/05/26 01:48:54;;;;;;;5.80;2.13;;;;;;;8.74;79.71;101239.88;5071505;28;20105;-46
2021/05/26 01:51:19;;;;;;;2.97;2.00;;;;;;;8.74;79.68;101239.06;5072397;28;20032;-46
2021/05/26 01:53:46;;;;;;;3.38;2.15;;;;;;;8.69;80.07;101230.91;5071872;28;20509;-46
2021/05/26 01:56:16;;;;;;;1.90;1.60;;;;;;;8.75;79.57;101236.16;5074263;28;20028;-46
2021/05/26 01:58:42;;;;;;;4.28;2.20;;;;;;;8.74;79.65;101233.72;5071987;28;20020;-46
2021/05/26 02:01:09;;;;;;;3.42;1.70;;;;;;;8.76;79.00;101232.44;5071260;28;20513;-47
2021/05/26 02:03:40;;;;;;;2.03;1.75;;;;;;;8.78;78.96;101238.38;5070361;28;20416;-46
2021/05/26 02:06:06;;;;;;;2.65;1.60;;;;;;;8.76;78.84;101239.66;5070829;28;20032;-46
2021/05/26 02:08:32;;;;;;;5.53;1.63;;;;;;;8.76;78.59;101237.78;5071343;28;20024;-46
2021/05/26 02:13:42;;;;;;;3.35;1.63;;;;;;;8.78;78.55;101233.03;5074882;28;20042;-46
2021/05/26 02:16:07;;;;;;;2.13;1.50;;;;;;;8.68;79.69;101232.78;5070525;28;20593;-47
2021/05/26 02:18:33;;;;;;;3.28;2.03;;;;;;;8.58;80.24;101229.78;5071949;28;20020;-45
2021/05/26 02:20:59;;;;;;;1.75;1.45;;;;;;;8.57;80.06;101238.84;5070815;28;20028;-46
2021/05/26 02:23:24;;;;;;;2.45;1.30;;;;;;;8.58;79.95;101223.63;5068764;28;20039;-46
2021/05/26 02:25:49;;;;;;;2.15;1.30;;;;;;;8.52;80.52;101229.88;5072742;28;20019;-47
2021/05/26 02:28:15;;;;;;;1.50;1.40;;;;;;;8.45;80.73;101235.31;5070658;28;20384;-46
2021/05/26 02:30:40;;;;;;;3.30;1.60;;;;;;;8.40;81.04;101232.47;5069597;28;20039;-48
2021/05/26 02:33:06;;;;;;;1.83;1.35;;;;;;;8.32;81.49;101230.88;5071626;28;20028;-46
2021/05/26 02:35:32;;;;;;;3.17;1.40;;;;;;;8.42;81.33;101227.72;5072810;28;20102;-46
2021/05/26 02:37:58;;;;;;;1.73;1.48;;;;;;;8.53;80.78;101236.84;5071397;28;20046;-46
2021/05/26 02:40:23;;;;;;;2.13;1.52;;;;;;;8.63;79.92;101229.97;5069038;28;20031;-46
2021/05/26 02:42:49;;;;;;;2.13;1.48;;;;;;;8.64;80.00;101236.13;5069470;28;20478;-49
2021/05/26 02:45:15;;;;;;;3.05;1.40;;;;;;;8.61;80.68;101239.22;5071981;28;20492;-46
2021/05/26 02:47:40;;;;;;;4.22;1.45;;;;;;;8.68;79.52;101246.13;5070229;28;20482;-47
2021/05/26 02:50:06;;;;;;;4.13;1.55;;;;;;;8.60;80.11;101237.56;5069450;28;20028;-46
2021/05/26 02:52:31;;;;;;;1.10;1.00;;;;;;;8.67;79.46;101233.00;5073427;28;20024;-46
2021/05/26 02:54:57;;;;;;;3.70;2.05;;;;;;;8.71;79.26;101232.31;5072378;28;20498;-47
2021/05/26 02:57:22;;;;;;;1.58;1.40;;;;;;;8.76;79.07;101232.44;5070321;28;20077;-46
2021/05/26 02:59:48;;;;;;;3.42;1.20;;;;;;;8.82;78.36;101237.97;5069692;28;20458;-47
2021/05/26 03:02:14;;;;;;;2.35;1.00;;;;;;;8.77;78.71;101231.41;5069528;28;20604;-47
2021/05/26 03:04:39;;;;;;;1.90;1.25;;;;;;;8.79;78.86;101237.34;5069981;28;20039;-46
2021/05/26 03:07:05;;;;;;;2.55;1.13;;;;;;;8.70;79.21;101240.56;5069739;28;20531;-48
2021/05/26 03:09:30;;;;;;;3.05;1.33;;;;;;;8.65;79.13;101241.22;5069788;28;20051;-46
2021/05/26 03:11:56;;;;;;;2.33;1.30;;;;;;;8.67;79.03;101233.81;5070724;28;20043;-46
2021/05/26 03:14:21;;;;;;;1.58;1.48;;;;;;;8.63;79.39;101235.31;5070405;28;20024;-48
2021/05/26 03:16:47;;;;;;;1.15;0.82;;;;;;;8.66;79.44;101234.03;5070270;28;20516;-46
2021/05/26 03:19:12;;;;;;;1.40;1.00;;;;;;;8.67;79.67;101239.16;5068536;28;20538;-45
2021/05/26 03:21:39;;;;;;;3.28;1.20;;;;;;;8.56;80.26;101231.88;5070176;28;20027;-46
2021/05/26 03:24:05;;;;;;;1.60;1.10;;;;;;;8.68;79.70;101237.28;5070911;28;20028;-46
2021/05/26 03:26:30;;;;;;;2.72;1.25;;;;;;;8.65;79.70;101235.91;5070421;28;20034;-48
2021/05/26 03:28:56;;;;;;;1.67;1.20;;;;;;;8.74;79.11;101245.22;5069801;28;20542;-46
2021/05/26 03:31:21;;;;;;;3.47;1.30;;;;;;;8.78;79.28;101245.59;5068361;28;20413;-46
2021/05/26 03:33:47;;;;;;;1.65;1.00;;;;;;;8.58;79.84;101245.81;5069468;28;20099;-46
2021/05/26 03:36:12;;;;;;;1.25;1.10;;;;;;;8.59;79.72;101247.44;5068788;28;20025;-46
2021/05/26 03:38:38;;;;;;;1.48;1.20;;;;;;;8.63;79.86;101246.00;5069293;28;20497;-47
2021/05/26 03:41:03;;;;;;;1.60;1.00;;;;;;;8.75;79.33;101257.53;5068705;28;20020;-47
2021/05/26 03:43:29;;;;;;;2.33;1.00;;;;;;;8.76;79.11;101245.81;5069985;28;20032;-47
2021/05/26 03:45:54;;;;;;;3.22;1.20;;;;;;;8.83;78.80;101251.09;5067948;28;20564;-45
2021/05/26 03:48:20;;;;;;;3.30;1.33;;;;;;;8.85;78.41;101242.84;5072416;28;20106;-48
2021/05/26 03:50:45;;;;;;;1.83;1.17;;;;;;;8.84;79.05;101241.22;5071539;28;20028;-46
2021/05/26 03:53:11;;;;;;;1.42;0.98;;;;;;;8.96;78.29;101242.06;5070697;28;20032;-46
2021/05/26 03:55:36;;;;;;;1.10;0.90;;;;;;;8.97;78.37;101251.72;5070231;28;20220;-46
2021/05/26 03:58:02;;;;;;;2.75;1.10;;;;;;;8.96;78.44;101250.09;5072666;28;20595;-47
2021/05/26 04:00:28;;;;;;;2.08;1.10;;;;;;;8.90;78.88;101246.47;5075039;28;20151;-46
2021/05/26 04:02:53;;;;;;;2.28;1.45;;;;;;;8.98;78.71;101245.38;5073146;28;20024;-46
2021/05/26 04:05:19;;;;;;;1.58;1.10;;;;;;;8.98;78.56;101246.19;5071387;28;20065;-46
2021/05/26 04:07:44;;;;;;;1.40;1.13;;;;;;;8.94;79.10;101244.97;5073867;28;20036;-46
2021/05/26 04:10:10;;;;;;;2.65;0.90;;;;;;;8.89;78.91;101247.50;5071814;28;20374;-46
2021/05/26 04:12:37;;;;;;;2.05;1.00;;;;;;;8.95;78.90;101245.78;5072887;28;20604;-48
2021/05/26 04:15:04;;;;;;;1.80;1.17;;;;;;;8.92;79.03;101246.25;5071885;28;20033;-46
2021/05/26 04:17:30;;;;;;;3.03;1.10;;;;;;;8.93;79.08;101242.53;5072722;28;20078;-48
2021/05/26 04:20:02;;;;;;;1.80;1.20;;;;;;;9.08;78.10;101243.78;5073480;28;20020;-47
2021/05/26 04:22:27;;;;;;;1.08;0.90;;;;;;;9.02;78.56;101242.00;5072593;28;20036;-46
2021/05/26 04:24:53;;;;;;;1.15;1.00;;;;;;;8.98;78.30;101243.50;5071519;28;20028;-46
2021/05/26 04:27:18;;;;;;;1.90;1.20;;;;;;;8.92;78.69;101241.72;5072215;28;20016;-45
2021/05/26 04:29:44;;;;;;;1.40;1.00;;;;;;;8.90;79.63;101243.00;5071460;28;20074;-47
2021/05/26 04:32:09;;;;;;;2.47;1.10;;;;;;;9.03;78.82;101238.28;5071604;28;20032;-47
2021/05/26 04:34:35;;;;;;;1.30;1.13;;;;;;;8.99;79.15;101234.44;5072941;28;20481;-46
2021/05/26 04:37:00;;;;;;;0.95;0.77;;;;;;;8.91;78.84;101245.44;5072230;28;20062;-47
2021/05/26 04:39:26;;;;;;;2.70;1.45;;;;;;;8.94;79.03;101244.97;5069947;28;20028;-46
2021/05/26 04:41:51;;;;;;;4.47;1.58;;;;;;;9.13;78.38;101244.94;5071039;28;20482;-46
2021/05/26 04:44:17;;;;;;;2.65;1.20;;;;;;;9.12;78.56;101246.81;5071990;28;20044;-46
2021/05/26 04:46:42;;;;;;;2.05;1.05;;;;;;;9.19;78.44;101242.19;5069276;28;20103;-46
2021/05/26 04:49:08;;;;;;;1.00;0.93;;;;;;;9.21;77.91;101242.78;5070965;28;20039;-45
2021/05/26 04:51:33;;;;;;;1.40;1.30;;;;;;;9.31;77.52;101244.91;5060961;28;20112;-46
2021/05/26 04:53:59;;;;;;;4.15;1.33;;;;;;;9.40;77.24;101240.88;5058951;28;20032;-45
2021/05/26 04:56:24;;;;;;;3.25;1.20;;;;;;;9.41;77.43;101241.69;5072720;28;20194;-46
2021/05/26 04:58:50;;;;;;;1.48;1.13;;;;;;;9.42;77.60;101240.66;5073442;28;20016;-47
2021/05/26 05:01:16;;;;;;;1.35;1.02;;;;;;;9.46;76.93;101237.28;5072555;28;20031;-46
2021/05/26 05:03:42;;;;;;;1.27;1.08;;;;;;;9.50;76.92;101226.94;5076067;28;20381;-46
2021/05/26 05:06:08;;;;;;;4.35;1.52;;;;;;;9.65;76.46;101235.34;5073060;28;20025;-47
2021/05/26 05:08:34;;;;;;;4.35;1.27;;;;;;;9.65;76.43;101238.03;5073807;28;20028;-48
2021/05/26 05:10:59;;;;;;;1.60;1.08;;;;;;;9.61;76.64;101239.53;5074521;28;20069;-46
2021/05/26 05:13:25;;;;;;;2.72;1.30;;;;;;;9.87;75.52;101232.94;5070092;28;20345;-47
2021/05/26 05:15:50;;;;;;;2.42;1.50;;;;;;;9.84;75.87;101236.88;5053673;28;20024;-46
2021/05/26 05:18:16;;;;;;;3.33;1.48;;;;;;;9.80;75.21;101237.59;5070548;28;20252;-46
2021/05/26 05:20:42;;;;;;;3.58;1.77;;;;;;;9.83;75.81;101231.75;5071883;28;20024;-47
2021/05/26 05:23:08;;;;;;;1.90;1.10;;;;;;;9.93;75.43;101222.13;5070453;28;20032;-46
2021/05/26 05:25:33;;;;;;;2.17;1.17;;;;;;;9.85;75.76;101235.03;5069792;28;20024;-46
2021/05/26 05:27:59;;;;;;;1.65;1.30;;;;;;;9.94;74.81;101228.28;5057703;28;20027;-47
2021/05/26 05:30:25;;;;;;;4.80;1.17;;;;;;;10.18;74.04;101224.56;5063576;28;20031;-47
2021/05/26 05:32:50;;;;;;;2.67;1.45;;;;;;;10.14;74.24;101225.28;5073145;28;20016;-46
2021/05/26 05:35:16;;;;;;;4.50;1.58;;;;;;;10.29;73.91;101229.13;5071365;28;20025;-46
2021/05/26 05:37:42;;;;;;;6.35;1.75;;;;;;;10.45;73.03;101227.63;5072492;28;20155;-46
2021/05/26 05:40:08;;;;;;;2.72;1.30;;;;;;;10.65;72.39;101224.53;5072102;28;20024;-47
2021/05/26 05:42:34;;;;;;;4.05;1.42;;;;;;;10.70;71.70;101218.47;5061289;28;20521;-46
2021/05/26 05:44:59;;;;;;;3.40;1.30;;;;;;;11.05;71.07;101219.16;5073798;28;20023;-46
2021/05/26 05:47:25;;;;;;;2.60;1.48;;;;;;;11.30;70.12;101228.72;5069761;28;20466;-47
2021/05/26 05:49:50;;;;;;;2.28;1.25;;;;;;;10.81;70.76;101217.63;5072501;28;20024;-46
2021/05/26 05:52:15;;;;;;;3.65;1.85;;;;;;;10.72;71.94;101219.84;5070174;28;20394;-46
2021/05/26 05:54:41;;;;;;;1.88;1.30;;;;;;;10.87;72.05;101222.84;5070857;28;20199;-47
2021/05/26 05:57:07;;;;;;;2.03;1.40;;;;;;;10.88;70.52;101218.28;5068859;28;20499;-46
2021/05/26 05:59:34;;;;;;;2.70;1.10;;;;;;;11.27;70.29;101221.16;5068795;28;20052;-45
2021/05/26 06:01:59;;;;;;;2.97;1.30;;;;;;;11.56;69.34;101213.91;5075603;28;20496;-46
2021/05/26 06:04:25;;;;;;;2.92;1.40;;;;;;;11.82;68.38;101209.75;5070201;28;20032;-47
2021/05/26 06:06:51;;;;;;;2.85;1.52;;;;;;;11.97;67.23;101212.69;5072489;28;20039;-46
2021/05/26 06:09:17;;;;;;;2.72;1.52;;;;;;;11.84;68.16;101210.34;5070283;28;20020;-46
2021/05/26 06:11:42;;;;;;;4.45;1.88;;;;;;;11.91;67.86;101211.00;5072050;28;20032;-46
2021/05/26 06:14:08;;;;;;;2.88;1.25;;;;;;;11.70;67.61;101216.03;5071337;28;20105;-46
2021/05/26 06:16:38;;;;;;;4.53;1.40;;;;;;;11.59;67.83;101210.72;5067843;28;20020;-46
2021/05/26 06:19:04;;;;;;;3.85;1.30;;;;;;;11.72;67.01;101218.47;5067950;28;20063;-46
2021/05/26 06:21:33;;;;;;;1.52;1.35;;;;;;;11.75;67.00;101212.59;5067621;28;20208;-46
2021/05/26 06:23:59;;;;;;;3.40;1.45;;;;;;;11.70;67.02;101210.66;5069204;28;20027;-46
2021/05/26 06:26:25;;;;;;;4.13;1.35;;;;;;;11.68;67.61;101220.81;5067722;28;20222;-46
2021/05/26 06:28:51;;;;;;;5.18;1.77;;;;;;;11.84;66.46;101221.06;5070368;28;20040;-46
2021/05/26 06:31:16;;;;;;;2.17;1.40;;;;;;;11.68;66.97;101214.63;5067698;28;20028;-47
2021/05/26 06:33:42;;;;;;;2.45;1.60;;;;;;;11.65;66.28;101215.91;5068569;28;20258;-46
2021/05/26 06:36:09;;;;;;;3.22;1.70;;;;;;;11.67;66.64;101221.03;5068039;28;20032;-46
2021/05/26 06:38:35;;;;;;;4.25;2.10;;;;;;;11.69;66.80;101206.34;5068405;28;20029;-46
2021/05/26 06:41:01;;;;;;;2.35;1.83;;;;;;;11.52;66.59;101220.81;5070037;28;20052;-46
2021/05/26 06:43:27;;;;;;;2.55;1.40;;;;;;;11.57;65.85;101213.66;5067201;28;20037;-46
2021/05/26 06:45:52;;;;;;;1.88;1.77;;;;;;;11.52;66.22;101210.88;5069497;28;20436;-46
2021/05/26 06:48:18;;;;;;;2.83;2.47;;;;;;;11.65;66.20;101215.91;5067464;28;20086;-46
2021/05/26 06:50:43;;;;;;;1.50;1.40;;;;;;;11.76;65.59;101219.59;5070572;28;20024;-46
2021/05/26 06:53:09;;;;;;;2.97;1.73;;;;;;;11.72;65.88;101213.09;5068505;28;20496;-46
2021/05/26 06:55:34;;;;;;;1.55;1.45;;;;;;;11.65;66.16;101217.78;5069365;28;20032;-46
2021/05/26 06:58:00;;;;;;;1.70;1.60;;;;;;;11.51;66.11;101211.94;5067467;28;20586;-47
2021/05/26 07:00:25;;;;;;;4.10;1.60;;;;;;;11.53;66.66;101219.75;5068417;28;20055;-46
2021/05/26 07:02:51;;;;;;;4.20;1.80;;;;;;;11.46;66.60;101219.88;5070042;28;20024;-46
2021/05/26 07:05:16;;;;;;;2.42;1.60;;;;;;;11.54;66.60;101216.00;5071301;28;20397;-46
2021/05/26 07:07:42;;;;;;;4.20;1.75;;;;;;;11.20;67.26;101219.44;5074840;28;20490;-46
2021/05/26 07:10:08;;;;;;;3.38;1.60;;;;;;;10.96;68.13;101228.66;5058680;28;20032;-46
2021/05/26 07:12:33;;;;;;;2.00;1.48;;;;;;;11.06;68.56;101226.16;5074498;28;20438;-46
2021/05/26 07:14:59;;;;;;;2.65;1.70;;;;;;;11.25;67.96;101224.09;5073796;28;20035;-46
2021/05/26 07:17:24;;;;;;;2.13;1.60;;;;;;;11.28;67.79;101225.47;5073567;28;20040;-46
2021/05/26 07:19:50;;;;;;;2.75;1.80;;;;;;;11.24;67.87;101227.00;5074990;28;20055;-46
2021/05/26 07:22:16;;;;;;;3.53;1.60;;;;;;;11.42;67.54;101218.75;5074533;28;20039;-46
2021/05/26 07:24:41;;;;;;;3.17;1.70;;;;;;;11.53;67.14;101217.88;5073117;28;20031;-46
2021/05/26 07:27:07;;;;;;;3.75;1.50;;;;;;;11.78;66.40;101228.22;5074455;28;20016;-46
2021/05/26 07:29:32;;;;;;;2.15;1.60;;;;;;;11.98;65.56;101219.69;5075163;28;20028;-46
2021/05/26 07:31:59;;;;;;;2.05;1.85;;;;;;;12.17;64.75;101225.59;5075245;28;20041;-47
2021/05/26 07:34:25;;;;;;;3.63;1.75;;;;;;;12.35;63.85;101218.06;5080677;28;20040;-47
2021/05/26 07:36:53;;;;;;;5.07;1.95;;;;;;;12.33;63.99;101216.69;5080547;28;20028;-46
2021/05/26 07:39:19;;;;;;;3.33;1.80;;;;;;;12.38;63.81;101217.56;5081448;28;20020;-47
2021/05/26 07:41:45;;;;;;;1.73;1.35;;;;;;;12.28;63.74;101222.81;5064754;28;20126;-46
2021/05/26 07:44:10;;;;;;;3.08;1.88;;;;;;;12.22;64.23;101213.06;5080170;28;20027;-46
2021/05/26 07:46:36;;;;;;;3.20;1.98;;;;;;;11.95;65.06;101223.69;5081108;28;20027;-47
2021/05/26 07:49:02;;;;;;;4.30;1.88;;;;;;;11.74;65.15;101227.88;5081724;28;20540;-46
2021/05/26 07:51:31;;;;;;;3.78;2.13;;;;;;;11.79;65.18;101227.19;5076966;28;20054;-47
2021/05/26 07:53:57;;;;;;;1.90;1.40;;;;;;;11.77;65.03;101218.53;5073665;28;21741;-46
2021/05/26 07:56:23;;;;;;;2.42;1.65;;;;;;;11.97;64.39;101220.75;5080424;28;20310;-46
2021/05/26 07:58:49;;;;;;;4.03;2.03;;;;;;;12.27;63.62;101213.13;5078448;28;20516;-45
2021/05/26 08:01:15;;;;;;;4.95;2.05;;;;;;;12.55;62.83;101216.72;5079332;28;20257;-46
2021/05/26 08:03:40;;;;;;;4.00;1.50;;;;;;;12.77;62.07;101214.88;5078922;28;20015;-46
2021/05/26 08:06:06;;;;;;;3.92;1.70;;;;;;;12.99;61.31;101217.53;5077581;28;20028;-46
2021/05/26 08:08:32;;;;;;;2.25;1.50;;;;;;;13.28;61.49;101218.09;5073673;28;20059;-46
2021/05/26 08:10:57;;;;;;;3.72;3.10;;;;;;;13.35;60.24;101216.03;5070415;28;20050;-47
2021/05/26 08:13:23;;;;;;;2.70;1.77;;;;;;;14.12;58.21;101207.47;5074344;28;20377;-47
2021/05/26 08:15:49;;;;;;;3.50;1.58;;;;;;;14.67;56.17;101203.47;5070411;28;20560;-46
2021/05/26 08:18:19;;;;;;;2.40;1.67;;;;;;;14.33;56.64;101200.31;5061095;28;20500;-46
2021/05/26 08:20:47;;;;;;;1.50;1.35;;;;;;;14.49;56.32;101203.94;5071039;28;20035;-46
2021/05/26 08:23:13;;;;;;;1.88;1.48;;;;;;;14.64;55.93;101212.09;5076451;28;20259;-46
2021/05/26 08:25:38;;;;;;;3.53;1.60;;;;;;;14.61;55.24;101199.13;5078251;28;20266;-46
2021/05/26 08:28:04;;;;;;;9.60;2.28;;;;;;;14.94;55.52;101195.19;5075340;28;20482;-47
2021/05/26 08:30:30;;;;;;;3.08;1.98;;;;;;;14.68;54.64;101201.56;5076938;28;20035;-46
2021/05/26 08:32:56;;;;;;;2.45;2.08;;;;;;;14.33;56.33;101188.72;5072105;28;20074;-46
2021/05/26 08:35:21;;;;;;;3.35;1.88;;;;;;;14.19;56.58;101183.81;5066361;28;20394;-47
2021/05/26 08:37:47;;;;;;;2.35;1.48;;;;;;;14.50;54.95;101200.97;5072538;28;20509;-46
2021/05/26 08:40:12;;;;;;;5.72;1.83;;;;;;;15.14;54.10;101185.53;5076873;28;20623;-46
2021/05/26 08:42:42;;;;;;;1.40;1.30;;;;;;;15.36;53.77;101184.19;5072321;28;20040;-47
2021/05/26 08:45:08;;;;;;;4.35;1.50;;;;;;;15.21;53.45;101186.88;5070771;28;20036;-46
2021/05/26 08:47:35;;;;;;;1.77;1.60;;;;;;;15.00;53.22;101187.91;5067984;28;20047;-47
2021/05/26 08:50:00;;;;;;;3.67;1.65;;;;;;;14.41;54.06;101175.56;5074282;28;20034;-46
2021/05/26 08:52:26;;;;;;;1.90;1.38;;;;;;;14.33;55.15;101184.13;5072604;28;20525;-47
2021/05/26 08:54:51;;;;;;;3.65;1.67;;;;;;;14.20;55.86;101184.63;5065551;28;20080;-47
2021/05/26 08:57:17;;;;;;;2.55;1.40;;;;;;;13.54;56.95;101198.44;5068399;28;20060;-46
2021/05/26 08:59:46;;;;;;;1.85;1.52;;;;;;;13.37;57.64;101184.28;5067332;28;20043;-46
2021/05/26 09:02:13;;;;;;;1.45;1.35;;;;;;;13.83;56.23;101188.19;5065682;28;20028;-46
2021/05/26 09:04:39;;;;;;;2.47;1.25;;;;;;;13.78;55.93;101187.31;5068674;28;20409;-46
2021/05/26 09:07:09;;;;;;;3.65;1.55;;;;;;;13.99;55.80;101174.78;5069968;28;20047;-46
2021/05/26 09:09:59;;;;;;;1.67;1.55;;;;;;;14.75;53.58;101167.91;5072400;28;20599;-47
2021/05/26 09:12:38;;;;;;;2.75;1.73;;;;;;;15.33;52.82;101168.53;5052658;28;20028;-46
2021/05/26 09:15:20;;;;;;;2.20;1.48;;;;;;;14.65;53.45;101167.84;5068042;28;20442;-46
2021/05/26 09:17:53;;;;;;;2.35;1.65;;;;;;;14.39;54.31;101160.72;5071439;28;20059;-46
2021/05/26 09:20:26;;;;;;;2.08;1.48;;;;;;;14.32;54.43;101169.03;5069354;28;20036;-46
2021/05/26 09:23:08;;;;;;;3.15;2.28;;;;;;;13.90;56.68;101175.28;5052404;28;20033;-46
2021/05/26 09:25:49;;;;;;;2.10;1.55;;;;;;;13.68;59.33;101188.06;5069791;28;20032;-47
2021/05/26 09:28:34;;;;;;;3.03;1.40;;;;;;;13.34;61.02;101167.84;5069454;28;20376;-47
2021/05/26 09:31:12;;;;;;;3.45;2.00;;;;;;;13.57;59.13;101168.31;5068768;28;20036;-46
2021/05/26 09:33:51;;;;;;;3.45;2.20;;;;;;;13.72;61.33;101166.81;5069928;28;20039;-46
2021/05/26 09:36:24;;;;;;;3.40;1.98;;;;;;;13.86;60.80;101165.28;5069319;28;20029;-47
2021/05/26 09:39:00;;;;;;;2.65;1.67;;;;;;;14.13;60.10;101165.97;5070809;28;20043;-48
2021/05/26 09:41:32;;;;;;;3.63;1.92;;;;;;;14.58;58.86;101167.31;5072531;28;20139;-47
2021/05/26 09:44:17;;;;;;;3.97;2.30;;;;;;;14.74;59.43;101149.28;5069318;28;20318;-47
2021/05/26 09:46:46;;;;;;;2.78;1.88;;;;;;;15.05;59.28;101158.25;5068757;28;20039;-46
2021/05/26 09:49:20;;;;;;;2.65;2.10;;;;;;;15.55;57.72;101156.66;5069945;28;20119;-46
2021/05/26 09:51:55;;;;;;;3.80;1.90;;;;;;;15.10;56.27;101150.16;5071735;28;20171;-48
2021/05/26 09:54:25;;;;;;;2.25;1.75;;;;;;;14.79;57.52;101147.41;5068419;28;20032;-46
2021/05/26 09:56:52;;;;;;;3.47;1.50;;;;;;;14.72;58.10;101133.38;5071986;28;20034;-47
2021/05/26 09:59:19;;;;;;;3.33;2.15;;;;;;;14.94;56.95;101148.53;5070995;28;20317;-47
2021/05/26 10:01:45;;;;;;;5.57;2.75;;;;;;;15.05;58.11;101158.25;5068452;28;20186;-46
2021/05/26 10:04:10;;;;;;;2.72;1.63;;;;;;;15.25;57.25;101158.25;5051564;28;20136;-46
2021/05/26 10:06:46;;;;;;;5.05;2.30;;;;;;;15.93;55.49;101139.06;5067604;28;20618;-46
2021/05/26 10:09:12;;;;;;;1.70;1.60;;;;;;;16.41;53.81;101140.25;5070597;28;20398;-46
2021/05/26 10:11:39;;;;;;;3.55;1.50;;;;;;;16.12;52.19;101129.28;5068089;28;20406;-47
2021/05/26 10:14:12;;;;;;;3.28;1.33;;;;;;;16.07;50.27;101125.78;5066938;28;20028;-46
2021/05/26 10:16:44;;;;;;;3.55;1.70;;;;;;;16.38;51.61;101116.47;5067722;28;20063;-47
2021/05/26 10:19:12;;;;;;;3.42;1.50;;;;;;;16.77;50.04;101118.47;5066639;28;20178;-46
2021/05/26 10:21:40;;;;;;;2.45;1.63;;;;;;;17.43;49.17;101107.94;5067024;28;20533;-46
2021/05/26 10:24:06;;;;;;;2.72;1.80;;;;;;;17.55;47.53;101110.25;5058953;28;20755;-46
2021/05/26 10:26:47;;;;;;;1.80;1.42;;;;;;;16.46;48.78;101121.28;5068969;28;20028;-46
2021/05/26 10:29:42;;;;;;;2.00;1.52;;;;;;;15.98;50.18;101123.66;5070283;28;20098;-47
2021/05/26 10:32:16;;;;;;;1.43;1.33;;;;;;;16.12;50.22;101107.66;5069667;28;20669;-46
2021/05/26 10:34:50;;;;;;;4.95;1.55;;;;;;;16.29;49.68;101112.72;5070619;28;20055;-47
2021/05/26 10:37:25;;;;;;;5.05;1.42;;;;;;;16.80;47.52;101109.78;5066249;28;20055;-46
2021/05/26 10:39:52;;;;;;;1.73;1.20;;;;;;;16.52;46.20;101100.47;5066458;28;20032;-46
2021/05/26 10:42:29;;;;;;;4.05;1.67;;;;;;;16.81;46.90;101097.88;5068254;28;20093;-47
2021/05/26 10:44:55;;;;;;;2.30;1.27;;;;;;;16.72;47.58;101097.66;5065576;28;20032;-47
2021/05/26 10:47:36;;;;;;;1.98;1.33;;;;;;;16.51;47.40;101096.13;5065940;28;20035;-46
2021/05/26 10:50:02;;;;;;;2.97;1.40;;;;;;;16.38;48.20;101099.44;5066067;28;20028;-46
2021/05/26 10:52:28;;;;;;;2.03;1.65;;;;;;;16.37;48.87;101104.03;5072524;28;20571;-47
2021/05/26 10:54:54;;;;;;;3.88;1.52;;;;;;;16.21;49.87;101110.59;5068058;28;20028;-47
2021/05/26 10:57:20;;;;;;;2.60;1.40;;;;;;;15.88;51.61;101110.16;5070013;28;20032;-46
2021/05/26 11:00:20;;;;;;;1.67;1.58;;;;;;;14.98;56.61;101141.50;5066794;28;20024;-47
2021/05/26 11:03:24;;;;;;;5.88;2.28;;;;;;;14.23;61.53;101135.59;5067540;28;21568;-46
2021/05/26 11:05:53;;;;;;;1.98;1.35;;;;;;;13.75;62.11;101137.47;5068799;28;20028;-46
2021/05/26 11:08:50;;;;;;;1.45;1.20;;;;;;;12.73;65.30;101143.81;5064620;28;20115;-46
2021/05/26 11:11:24;;;;;;;1.20;1.00;;;;;;;12.67;67.22;101134.88;5068955;28;20044;-46
2021/05/26 11:14:00;;;;;;;;;;;;;;;12.86;68.57;101118.41;5062726;28;20033;-46
2021/05/26 11:16:41;;;;;;;4.45;1.42;;;;;;;12.30;70.15;101113.22;5068101;28;19917;-47
2021/05/26 11:19:15;;;;;;;1.77;1.42;;;;;;;12.65;71.52;101110.13;5063773;28;20041;-46
2021/05/26 11:22:02;;;;;;;2.15;1.42;;;;;;;13.39;66.92;101109.47;5067714;28;20021;-46
2021/05/26 11:24:33;;;;;;;1.63;1.30;;;;;;;13.59;65.54;101100.75;5056914;28;20476;-46
2021/05/26 11:27:00;;;;;;;3.33;1.48;;;;;;;13.89;64.91;101097.44;5071289;28;20093;-46
2021/05/26 11:29:33;;;;;;;2.05;1.30;;;;;;;14.36;63.89;101097.38;5069970;28;20036;-47
2021/05/26 11:32:09;;;;;;;1.30;1.17;;;;;;;14.66;60.97;101102.06;5066287;28;20074;-46
2021/05/26 11:34:34;;;;;;;2.20;0.70;;;;;;;15.16;56.98;101097.81;5066631;28;20469;-46